createdAt,value
2022-09-15T00:09:43.536Z,1.10
2022-09-15T00:14:35.234Z,1.08
2022-09-15T00:19:26.973Z,1.00
2022-09-15T00:24:21.187Z,1.08
2022-09-15T00:29:13.284Z,0.95
2022-09-15T00:34:05.131Z,1.30
2022-09-15T00:38:58.279Z,1.00
2022-09-15T00:44:04.896Z,0.85
2022-09-15T00:49:08.595Z,0.82
2022-09-15T00:54:06.393Z,0.90
2022-09-15T01:04:23.868Z,0.80
2022-09-15T01:09:24.556Z,1.02
2022-09-15T01:14:16.882Z,1.05
2022-09-15T01:19:59.657Z,0.82
2022-09-15T01:25:06.684Z,0.82
2022-09-15T01:30:26.980Z,0.98
2022-09-15T01:36:00.643Z,0.90
2022-09-15T01:41:17.335Z,0.60
2022-09-15T01:46:18.969Z,0.82
2022-09-15T02:01:52.001Z,0.90
2022-09-15T02:07:39.693Z,1.10
2022-09-15T02:12:45.540Z,0.80
2022-09-15T02:22:57.855Z,0.90
2022-09-15T02:27:58.418Z,0.70
2022-09-15T02:33:11.889Z,0.88
2022-09-15T02:38:13.263Z,0.70
2022-09-15T02:48:18.309Z,0.70
2022-09-15T02:53:10.827Z,0.68
2022-09-15T02:58:02.796Z,0.50
2022-09-15T03:02:55.985Z,0.47
2022-09-15T03:07:48.257Z,1.10
2022-09-15T03:12:46.545Z,0.75
2022-09-15T03:17:43.885Z,0.45
2022-09-15T03:22:36.065Z,0.57
2022-09-15T03:27:27.989Z,0.60
2022-09-15T03:32:19.689Z,0.60
2022-09-15T03:37:11.669Z,0.52
2022-09-15T03:42:05.284Z,0.50
2022-09-15T03:46:58.755Z,0.45
2022-09-15T03:51:51.523Z,0.73
2022-09-15T03:56:43.556Z,0.50
2022-09-15T04:01:36.009Z,0.75
2022-09-15T04:06:35.823Z,0.60
2022-09-15T04:11:28.741Z,0.60
2022-09-15T04:26:42.185Z,0.60
2022-09-15T04:31:35.604Z,0.70
2022-09-15T04:36:36.510Z,1.05
2022-09-15T04:56:47.861Z,0.80
2022-09-15T05:01:40.809Z,0.90
2022-09-15T05:16:48.186Z,1.00
2022-09-15T05:21:41.663Z,1.30
2022-09-15T05:31:40.467Z,0.47
2022-09-15T05:41:40.563Z,0.70
2022-09-15T05:46:32.690Z,0.85
2022-09-15T05:51:33.502Z,0.93
2022-09-15T06:11:43.949Z,0.85
2022-09-15T06:26:50.050Z,0.90
2022-09-15T06:31:49.709Z,0.63
2022-09-15T06:42:02.719Z,1.08
2022-09-15T06:47:03.708Z,0.77
2022-09-15T07:43:02.620Z,0.57
2022-09-15T08:18:55.823Z,1.05
2022-09-15T08:45:09.849Z,1.05
2022-09-15T09:17:51.975Z,1.30
2022-09-15T09:54:38.669Z,1.02
2022-09-15T15:47:17.948Z,1.05
2022-09-15T18:49:07.057Z,1.20
2022-09-15T19:29:46.304Z,1.10
2022-09-15T20:31:50.038Z,1.67
2022-09-15T20:57:13.083Z,1.80
2022-09-15T21:17:24.078Z,1.70
2022-09-15T21:22:19.543Z,1.70
2022-09-15T21:32:39.599Z,2.00
2022-09-15T21:37:40.028Z,1.85
2022-09-15T21:42:35.382Z,1.80
2022-09-15T21:47:30.556Z,1.80
2022-09-15T21:52:23.070Z,1.80
2022-09-15T21:57:15.383Z,1.85
2022-09-15T22:02:11.508Z,1.77
2022-09-15T22:07:07.851Z,2.58
2022-09-15T22:17:05.953Z,2.10
2022-09-15T22:21:58.469Z,2.10
2022-09-15T22:26:50.867Z,2.20
2022-09-15T22:31:42.869Z,2.10
2022-09-15T22:36:36.256Z,2.10
2022-09-15T22:41:30.541Z,2.10
2022-09-15T22:56:35.252Z,2.45
2022-09-15T23:01:30.699Z,2.40
2022-09-15T23:06:24.563Z,1.90
2022-09-15T23:11:17.005Z,2.67
2022-09-15T23:16:09.355Z,2.65
2022-09-15T23:26:21.565Z,2.38
2022-09-15T23:31:14.523Z,2.10
2022-09-15T23:36:10.526Z,2.08
2022-09-15T23:41:02.517Z,2.08
2022-09-15T23:51:00.561Z,2.38
2022-09-15T23:55:52.666Z,2.60
